Thunder radar more information blitzortung!


Radar de pluja more information rain snow radar


Visita la nostra xarxa de llocs de meteo:

Template documentation
and downloads

And another site



No particular awareness of the weather is required.    There are no Weather-warnings

Pagina Historial Weather Underground text

Diari Resum Juliol 26, 2017 Unitats:  Tant    Imperial   Mètric
« Previous Dia
SegĂźent Dia »
Diari Setmana Mensual Anual Personalitzada
  Maxima: Minima: Media:
Temperatura: 85.8 °F /  29.9 °C 63.7 °F /  17.6 °C 75.2 °F /  24 °C
Punt de rosada: 62.4 °F /  16.9 °C 49.5 °F /  9.7 °C 57 °F /  13.9 °C
Humitat: 76 % 38 % 54 %
Wind Speed: 13.8 mph /  22.2 km/h - 3.9 mph /  6.3 km/h
RĂ fegues de vent: 13.8 mph /  22.2 km/h - -
Vent:- - SSE
Pression baro: 30 in /  1014.8 hPa 29.8 in /  1010.7 hPa -
Precipitacions: 0 in /  0.0 mm    
Historical Graphs
 
 
Dades de taula per Juliol 26, 2017
Temps Temperatura Punt de rosada Pression baro Vent Wind Speed RĂ fegues de vent Humitat Rainfall Rate (Hourly)
00:04 72.1 °F /  22.3 °C 61.9 °F /  16.6 °C 29.9 in /  1011.7 hPa NNE 2.3 mph /  3.7 km/h 2.3 mph /  3.7 km/h 70 % 0 in /  0.0 mm
00:05 67.3 °F /  19.6 °C 51.4 °F /  10.8 °C 29.8 in /  1010.7 hPa NNE 3 mph /  4.8 km/h 3 mph /  4.8 km/h 57 % 0 in /  0.0 mm
00:09 72.1 °F /  22.3 °C 61.9 °F /  16.6 °C 29.9 in /  1011.7 hPa NE 2.3 mph /  3.7 km/h 2.3 mph /  3.7 km/h 70 % 0 in /  0.0 mm
00:14 72 °F /  22.2 °C 62.1 °F /  16.7 °C 29.9 in /  1011.7 hPa East 2.3 mph /  3.7 km/h 2.3 mph /  3.7 km/h 71 % 0 in /  0.0 mm
00:15 66.7 °F /  19.3 °C 50.5 °F /  10.3 °C 29.8 in /  1010.7 hPa SW 1 mph /  1.6 km/h 2 mph /  3.2 km/h 56 % 0 in /  0.0 mm
00:19 72 °F /  22.2 °C 62.1 °F /  16.7 °C 29.9 in /  1011.7 hPa NNE 2.9 mph /  4.7 km/h 2.9 mph /  4.7 km/h 71 % 0 in /  0.0 mm
00:20 72 °F /  22.2 °C 62.1 °F /  16.7 °C 29.9 in /  1011.7 hPa NNE 2.4 mph /  3.9 km/h 2.4 mph /  3.9 km/h 71 % 0 in /  0.0 mm
00:25 71.8 °F /  22.1 °C 61.9 °F /  16.6 °C 29.9 in /  1011.7 hPa NE 3.5 mph /  5.6 km/h 3.5 mph /  5.6 km/h 71 % 0 in /  0.0 mm
00:30 71.8 °F /  22.1 °C 61.9 °F /  16.6 °C 29.9 in /  1011.7 hPa NE 4.6 mph /  7.4 km/h 4.6 mph /  7.4 km/h 71 % 0 in /  0.0 mm
00:35 71.6 °F /  22.0 °C 61.7 °F /  16.5 °C 29.9 in /  1011.7 hPa NE 5.9 mph /  9.5 km/h 5.9 mph /  9.5 km/h 71 % 0 in /  0.0 mm
00:40 71.4 °F /  21.9 °C 61.9 °F /  16.6 °C 29.9 in /  1011.7 hPa NNE 4.6 mph /  7.4 km/h 4.6 mph /  7.4 km/h 72 % 0 in /  0.0 mm
00:45 71.4 °F /  21.9 °C 61.9 °F /  16.6 °C 29.9 in /  1011.7 hPa NNE 3.5 mph /  5.6 km/h 3.5 mph /  5.6 km/h 72 % 0 in /  0.0 mm
00:50 71.2 °F /  21.8 °C 61.7 °F /  16.5 °C 29.9 in /  1011.7 hPa ENE 3.5 mph /  5.6 km/h 3.5 mph /  5.6 km/h 72 % 0 in /  0.0 mm
00:55 71.1 °F /  21.7 °C 61.5 °F /  16.4 °C 29.9 in /  1011.7 hPa NNE 4.6 mph /  7.4 km/h 4.6 mph /  7.4 km/h 72 % 0 in /  0.0 mm
01:05 65.1 °F /  18.4 °C 50 °F /  10.0 °C 29.9 in /  1012.8 hPa Calm   1 mph /  1.6 km/h 58 % 0 in /  0.0 mm
01:15 64.9 °F /  18.3 °C 49.8 °F /  9.9 °C 29.9 in /  1012.8 hPa Calm     58 % 0 in /  0.0 mm
01:25 64.8 °F /  18.2 °C 49.6 °F /  9.8 °C 29.9 in /  1011.7 hPa Calm   1 mph /  1.6 km/h 58 % 0 in /  0.0 mm
01:35 64.2 °F /  17.9 °C 49.6 °F /  9.8 °C 29.9 in /  1011.7 hPa WSW 1 mph /  1.6 km/h 2 mph /  3.2 km/h 59 % 0 in /  0.0 mm
01:45 63.7 °F /  17.6 °C 49.5 °F /  9.7 °C 29.9 in /  1011.7 hPa WSW 1 mph /  1.6 km/h 1 mph /  1.6 km/h 60 % 0 in /  0.0 mm
01:55 63.9 °F /  17.7 °C 49.6 °F /  9.8 °C 29.9 in /  1012.8 hPa SW 1 mph /  1.6 km/h 2 mph /  3.2 km/h 60 % 0 in /  0.0 mm
02:05 63.7 °F /  17.6 °C 49.5 °F /  9.7 °C 29.9 in /  1012.8 hPa Calm   1 mph /  1.6 km/h 60 % 0 in /  0.0 mm
02:15 64 °F /  17.8 °C 49.8 °F /  9.9 °C 29.9 in /  1012.8 hPa SW 1 mph /  1.6 km/h 2 mph /  3.2 km/h 60 % 0 in /  0.0 mm
02:25 64 °F /  17.8 °C 49.8 °F /  9.9 °C 29.9 in /  1012.8 hPa SW 2 mph /  3.2 km/h 2 mph /  3.2 km/h 60 % 0 in /  0.0 mm
02:35 63.9 °F /  17.7 °C 50.2 °F /  10.1 °C 29.9 in /  1012.8 hPa SW 1 mph /  1.6 km/h 2 mph /  3.2 km/h 61 % 0 in /  0.0 mm
02:45 63.9 °F /  17.7 °C 50.2 °F /  10.1 °C 29.9 in /  1012.8 hPa SW 1 mph /  1.6 km/h 1 mph /  1.6 km/h 61 % 0 in /  0.0 mm
02:55 64.6 °F /  18.1 °C 50.7 °F /  10.4 °C 29.9 in /  1013.8 hPa SW 1 mph /  1.6 km/h 1 mph /  1.6 km/h 61 % 0 in /  0.0 mm
03:05 65.8 °F /  18.8 °C 51.6 °F /  10.9 °C 29.9 in /  1013.8 hPa WSW 1 mph /  1.6 km/h 2 mph /  3.2 km/h 60 % 0 in /  0.0 mm
03:15 67.5 °F /  19.7 °C 52.2 °F /  11.2 °C 29.9 in /  1013.8 hPa Calm   3 mph /  4.8 km/h 58 % 0 in /  0.0 mm
03:25 68.4 °F /  20.2 °C 52 °F /  11.1 °C 29.9 in /  1012.8 hPa Calm   2 mph /  3.2 km/h 56 % 0 in /  0.0 mm
03:35 68.4 °F /  20.2 °C 52 °F /  11.1 °C 29.9 in /  1013.8 hPa Calm   2 mph /  3.2 km/h 56 % 0 in /  0.0 mm
03:45 67.3 °F /  19.6 °C 51.1 °F /  10.6 °C 29.9 in /  1013.8 hPa NE 2 mph /  3.2 km/h 3 mph /  4.8 km/h 56 % 0 in /  0.0 mm
03:55 67.5 °F /  19.7 °C 51.3 °F /  10.7 °C 29.9 in /  1013.8 hPa ENE 2 mph /  3.2 km/h 3 mph /  4.8 km/h 56 % 0 in /  0.0 mm
04:05 67.3 °F /  19.6 °C 51.4 °F /  10.8 °C 29.9 in /  1013.8 hPa NE 2 mph /  3.2 km/h 4 mph /  6.4 km/h 57 % 0 in /  0.0 mm
04:15 67.6 °F /  19.8 °C 51.4 °F /  10.8 °C 29.9 in /  1013.8 hPa NNE 3 mph /  4.8 km/h 4 mph /  6.4 km/h 56 % 0 in /  0.0 mm
04:25 68.4 °F /  20.2 °C 51.6 °F /  10.9 °C 29.9 in /  1013.8 hPa NE 2 mph /  3.2 km/h 5 mph /  8.0 km/h 55 % 0 in /  0.0 mm
04:35 68.7 °F /  20.4 °C 52 °F /  11.1 °C 29.9 in /  1012.8 hPa ENE 2 mph /  3.2 km/h 2 mph /  3.2 km/h 55 % 0 in /  0.0 mm
04:45 69.4 °F /  20.8 °C 52.5 °F /  11.4 °C 29.9 in /  1012.8 hPa SE 2 mph /  3.2 km/h 2 mph /  3.2 km/h 55 % 0 in /  0.0 mm
04:55 69.4 °F /  20.8 °C 52.2 °F /  11.2 °C 29.9 in /  1013.8 hPa SSW 1 mph /  1.6 km/h 3 mph /  4.8 km/h 54 % 0 in /  0.0 mm
05:05 70.2 °F /  21.2 °C 52.7 °F /  11.5 °C 29.9 in /  1013.8 hPa SSE 1 mph /  1.6 km/h 2 mph /  3.2 km/h 54 % 0 in /  0.0 mm
05:15 70.9 °F /  21.6 °C 52.9 °F /  11.6 °C 29.9 in /  1013.8 hPa NNE 1 mph /  1.6 km/h 2 mph /  3.2 km/h 53 % 0 in /  0.0 mm
05:25 72 °F /  22.2 °C 54 °F /  12.2 °C 29.9 in /  1013.8 hPa WNW 1 mph /  1.6 km/h 2 mph /  3.2 km/h 53 % 0 in /  0.0 mm
05:35 72.1 °F /  22.3 °C 53.4 °F /  11.9 °C 29.9 in /  1013.8 hPa NE 1 mph /  1.6 km/h 4 mph /  6.4 km/h 52 % 0 in /  0.0 mm
10:34 72.1 °F /  22.3 °C 53.4 °F /  11.9 °C 29.9 in /  1013.8 hPa NNE 1.2 mph /  1.9 km/h 3.1 mph /  5.0 km/h 52 % 0 in /  0.0 mm
10:39 73 °F /  22.8 °C 54.3 °F /  12.4 °C 29.9 in /  1013.8 hPa North 3.6 mph /  5.8 km/h 3.6 mph /  5.8 km/h 52 % 0 in /  0.0 mm
10:44 72.3 °F /  22.4 °C 53.8 °F /  12.1 °C 29.9 in /  1013.8 hPa NE 4.6 mph /  7.4 km/h 4.6 mph /  7.4 km/h 52 % 0 in /  0.0 mm
10:49 73.2 °F /  22.9 °C 54.5 °F /  12.5 °C 29.9 in /  1013.8 hPa NNE 3.5 mph /  5.6 km/h 3.5 mph /  5.6 km/h 52 % 0 in /  0.0 mm
10:54 73.6 °F /  23.1 °C 53.8 °F /  12.1 °C 29.9 in /  1013.8 hPa NNE 3.5 mph /  5.6 km/h 3.5 mph /  5.6 km/h 50 % 0 in /  0.0 mm
10:59 73.9 °F /  23.3 °C 54.1 °F /  12.3 °C 29.9 in /  1013.8 hPa NW 2.6 mph /  4.2 km/h   50 % 0 in /  0.0 mm
11:04 74.3 °F /  23.5 °C 54.5 °F /  12.5 °C 29.9 in /  1013.8 hPa East 3.5 mph /  5.6 km/h 3.5 mph /  5.6 km/h 50 % 0 in /  0.0 mm
11:09 74.1 °F /  23.4 °C 54.3 °F /  12.4 °C 29.9 in /  1013.8 hPa NNE 5.4 mph /  8.7 km/h 5.4 mph /  8.7 km/h 50 % 0 in /  0.0 mm
11:14 73.4 °F /  23.0 °C 53.1 °F /  11.7 °C 29.9 in /  1013.8 hPa SSE 3.6 mph /  5.8 km/h 3.6 mph /  5.8 km/h 49 % 0 in /  0.0 mm
11:19 74.3 °F /  23.5 °C 53.2 °F /  11.8 °C 29.9 in /  1013.8 hPa South 4.3 mph /  6.9 km/h 4.3 mph /  6.9 km/h 48 % 0 in /  0.0 mm
11:24 75.9 °F /  24.4 °C 55.4 °F /  13.0 °C 29.9 in /  1013.8 hPa SSE 4.6 mph /  7.4 km/h 4.6 mph /  7.4 km/h 49 % 0 in /  0.0 mm
11:29 76.3 °F /  24.6 °C 55 °F /  12.8 °C 29.9 in /  1013.8 hPa South 3.5 mph /  5.6 km/h 3.5 mph /  5.6 km/h 48 % 0 in /  0.0 mm
11:34 76.8 °F /  24.9 °C 56.1 °F /  13.4 °C 29.9 in /  1013.8 hPa NNE 4.6 mph /  7.4 km/h 4.6 mph /  7.4 km/h 49 % 0 in /  0.0 mm
11:39 77.2 °F /  25.1 °C 55.9 °F /  13.3 °C 29.9 in /  1013.8 hPa NNW 3.5 mph /  5.6 km/h 3.5 mph /  5.6 km/h 48 % 0 in /  0.0 mm
11:44 78.4 °F /  25.8 °C 57 °F /  13.9 °C 29.9 in /  1013.8 hPa SW 4 mph /  6.4 km/h 4 mph /  6.4 km/h 48 % 0 in /  0.0 mm
11:49 78.6 °F /  25.9 °C 57.4 °F /  14.1 °C 29.9 in /  1013.8 hPa SSW 4.6 mph /  7.4 km/h 4.6 mph /  7.4 km/h 48 % 0 in /  0.0 mm
11:54 79 °F /  26.1 °C 57 °F /  13.9 °C 29.9 in /  1013.8 hPa SW 3.5 mph /  5.6 km/h 3.8 mph /  6.1 km/h 47 % 0 in /  0.0 mm
11:59 79.2 °F /  26.2 °C 57.2 °F /  14.0 °C 29.9 in /  1013.8 hPa SW 5.8 mph /  9.3 km/h 5.8 mph /  9.3 km/h 47 % 0 in /  0.0 mm
12:04 79.2 °F /  26.2 °C 57.2 °F /  14.0 °C 29.9 in /  1012.8 hPa SW 8.1 mph /  13.0 km/h 8.1 mph /  13.0 km/h 47 % 0 in /  0.0 mm
12:09 79.3 °F /  26.3 °C 57.4 °F /  14.1 °C 29.9 in /  1012.8 hPa WSW 8.1 mph /  13.0 km/h 8.1 mph /  13.0 km/h 47 % 0 in /  0.0 mm
12:14 79.9 °F /  26.6 °C 57.4 °F /  14.1 °C 29.9 in /  1012.8 hPa SE 3.5 mph /  5.6 km/h 3.5 mph /  5.6 km/h 46 % 0 in /  0.0 mm
12:19 80.2 °F /  26.8 °C 58.3 °F /  14.6 °C 29.9 in /  1012.8 hPa East 3.8 mph /  6.1 km/h 3.8 mph /  6.1 km/h 47 % 0 in /  0.0 mm
12:24 81 °F /  27.2 °C 57.6 °F /  14.2 °C 29.9 in /  1012.8 hPa SW 4.6 mph /  7.4 km/h 4.6 mph /  7.4 km/h 45 % 0 in /  0.0 mm
12:29 81.5 °F /  27.5 °C 58.1 °F /  14.5 °C 29.9 in /  1012.8 hPa SW 3.1 mph /  5.0 km/h 3.1 mph /  5.0 km/h 45 % 0 in /  0.0 mm
12:34 81.7 °F /  27.6 °C 57.6 °F /  14.2 °C 29.9 in /  1012.8 hPa WSW 6.4 mph /  10.3 km/h 6.4 mph /  10.3 km/h 44 % 0 in /  0.0 mm
12:39 81.3 °F /  27.4 °C 56.7 °F /  13.7 °C 29.9 in /  1012.8 hPa SSE 5.8 mph /  9.3 km/h 5.8 mph /  9.3 km/h 43 % 0 in /  0.0 mm
12:44 81.9 °F /  27.7 °C 57.2 °F /  14.0 °C 29.9 in /  1012.8 hPa SSE 4.6 mph /  7.4 km/h 4.6 mph /  7.4 km/h 43 % 0 in /  0.0 mm
12:49 81.9 °F /  27.7 °C 57.2 °F /  14.0 °C 29.9 in /  1012.8 hPa ESE 4.6 mph /  7.4 km/h 4.6 mph /  7.4 km/h 43 % 0 in /  0.0 mm
12:54 82 °F /  27.8 °C 56.7 °F /  13.7 °C 29.9 in /  1012.8 hPa SSW 3.6 mph /  5.8 km/h 3.6 mph /  5.8 km/h 42 % 0 in /  0.0 mm
12:59 82.2 °F /  27.9 °C 57.6 °F /  14.2 °C 29.9 in /  1012.8 hPa SSW 8.1 mph /  13.0 km/h 8.1 mph /  13.0 km/h 43 % 0 in /  0.0 mm
13:04 83.5 °F /  28.6 °C 58.6 °F /  14.8 °C 29.9 in /  1011.7 hPa East 3.1 mph /  5.0 km/h 3.1 mph /  5.0 km/h 43 % 0 in /  0.0 mm
13:05 82.9 °F /  28.3 °C 57.6 °F /  14.2 °C 29.9 in /  1011.7 hPa SSE 4.6 mph /  7.4 km/h 4.6 mph /  7.4 km/h 42 % 0 in /  0.0 mm
13:10 82 °F /  27.8 °C 55.9 °F /  13.3 °C 29.9 in /  1011.7 hPa SE 4.7 mph /  7.6 km/h 4.7 mph /  7.6 km/h 41 % 0 in /  0.0 mm
13:15 81.9 °F /  27.7 °C 56.5 °F /  13.6 °C 29.9 in /  1011.7 hPa SW 2.3 mph /  3.7 km/h 2.3 mph /  3.7 km/h 42 % 0 in /  0.0 mm
13:20 83.5 °F /  28.6 °C 57.9 °F /  14.4 °C 29.9 in /  1011.7 hPa SW 6.9 mph /  11.1 km/h 6.9 mph /  11.1 km/h 42 % 0 in /  0.0 mm
13:25 83.5 °F /  28.6 °C 57.9 °F /  14.4 °C 29.9 in /  1011.7 hPa SW 4.6 mph /  7.4 km/h 4.6 mph /  7.4 km/h 42 % 0 in /  0.0 mm
13:30 84.2 °F /  29.0 °C 57.4 °F /  14.1 °C 29.9 in /  1011.7 hPa SSE 4.6 mph /  7.4 km/h 4.6 mph /  7.4 km/h 40 % 0 in /  0.0 mm
13:37 84.9 °F /  29.4 °C 57.2 °F /  14.0 °C 29.9 in /  1011.7 hPa SSW 3.1 mph /  5.0 km/h 3.1 mph /  5.0 km/h 39 % 0 in /  0.0 mm
13:42 84.7 °F /  29.3 °C 57 °F /  13.9 °C 29.9 in /  1011.7 hPa West 3.5 mph /  5.6 km/h 3.5 mph /  5.6 km/h 39 % 0 in /  0.0 mm
13:47 84.9 °F /  29.4 °C 57.9 °F /  14.4 °C 29.9 in /  1011.7 hPa SW 8.5 mph /  13.7 km/h 8.5 mph /  13.7 km/h 40 % 0 in /  0.0 mm
13:52 84.6 °F /  29.2 °C 57.6 °F /  14.2 °C 29.9 in /  1011.7 hPa WSW 5.8 mph /  9.3 km/h 5.8 mph /  9.3 km/h 40 % 0 in /  0.0 mm
13:57 84 °F /  28.9 °C 57 °F /  13.9 °C 29.9 in /  1011.7 hPa SSW 6.9 mph /  11.1 km/h 6.9 mph /  11.1 km/h 40 % 0 in /  0.0 mm
14:02 84.9 °F /  29.4 °C 57.2 °F /  14.0 °C 29.9 in /  1011.7 hPa SE 3.5 mph /  5.6 km/h 3.5 mph /  5.6 km/h 39 % 0 in /  0.0 mm
14:07 85.5 °F /  29.7 °C 58.5 °F /  14.7 °C 29.9 in /  1011.7 hPa SSW 8.7 mph /  14.0 km/h 8.7 mph /  14.0 km/h 40 % 0 in /  0.0 mm
14:08 85.5 °F /  29.7 °C 58.5 °F /  14.7 °C 29.9 in /  1011.7 hPa WSW 9.2 mph /  14.8 km/h 9.2 mph /  14.8 km/h 40 % 0 in /  0.0 mm
14:13 85.6 °F /  29.8 °C 57.7 °F /  14.3 °C 29.9 in /  1011.7 hPa SSW 5.8 mph /  9.3 km/h 5.8 mph /  9.3 km/h 39 % 0 in /  0.0 mm
14:18 85.6 °F /  29.8 °C 57.7 °F /  14.3 °C 29.9 in /  1011.7 hPa NNW 3.5 mph /  5.6 km/h 3.5 mph /  5.6 km/h 39 % 0 in /  0.0 mm
14:19 85.5 °F /  29.7 °C 57.7 °F /  14.3 °C 29.9 in /  1011.7 hPa WNW 3.5 mph /  5.6 km/h 3.5 mph /  5.6 km/h 39 % 0 in /  0.0 mm
14:24 85.1 °F /  29.5 °C 57.4 °F /  14.1 °C 29.9 in /  1011.7 hPa NNE 2.3 mph /  3.7 km/h 2.6 mph /  4.2 km/h 39 % 0 in /  0.0 mm
14:29 85.8 °F /  29.9 °C 57.4 °F /  14.1 °C 29.9 in /  1011.7 hPa South 5.8 mph /  9.3 km/h 5.8 mph /  9.3 km/h 38 % 0 in /  0.0 mm
14:34 85.6 °F /  29.8 °C 58.5 °F /  14.7 °C 29.9 in /  1011.7 hPa South 5.8 mph /  9.3 km/h 5.8 mph /  9.3 km/h 40 % 0 in /  0.0 mm
14:39 84.2 °F /  29.0 °C 57.9 °F /  14.4 °C 29.9 in /  1011.7 hPa SW 9.2 mph /  14.8 km/h 9.2 mph /  14.8 km/h 41 % 0 in /  0.0 mm
14:44 81.9 °F /  27.7 °C 57.2 °F /  14.0 °C 29.9 in /  1011.7 hPa SSE 8.1 mph /  13.0 km/h 8.1 mph /  13.0 km/h 43 % 0 in /  0.0 mm
14:49 81.1 °F /  27.3 °C 57.7 °F /  14.3 °C 29.9 in /  1011.7 hPa ESE 8.1 mph /  13.0 km/h 8.1 mph /  13.0 km/h 45 % 0 in /  0.0 mm
14:54 81.5 °F /  27.5 °C 58.1 °F /  14.5 °C 29.9 in /  1011.7 hPa SSE 8.1 mph /  13.0 km/h 8.1 mph /  13.0 km/h 45 % 0 in /  0.0 mm
14:59 81.7 °F /  27.6 °C 58.8 °F /  14.9 °C 29.9 in /  1011.7 hPa SE 5.8 mph /  9.3 km/h 5.9 mph /  9.5 km/h 46 % 0 in /  0.0 mm
15:04 82.2 °F /  27.9 °C 59.4 °F /  15.2 °C 29.9 in /  1011.7 hPa SSE 6.9 mph /  11.1 km/h 6.9 mph /  11.1 km/h 46 % 0 in /  0.0 mm
15:09 81.1 °F /  27.3 °C 59 °F /  15.0 °C 29.9 in /  1011.7 hPa South 5.8 mph /  9.3 km/h 5.8 mph /  9.3 km/h 47 % 0 in /  0.0 mm
15:19 80.4 °F /  26.9 °C 58.8 °F /  14.9 °C 29.9 in /  1011.7 hPa South 8.1 mph /  13.0 km/h 8.1 mph /  13.0 km/h 48 % 0 in /  0.0 mm
15:24 79.5 °F /  26.4 °C 58.6 °F /  14.8 °C 29.9 in /  1011.7 hPa East 8.7 mph /  14.0 km/h 8.7 mph /  14.0 km/h 49 % 0 in /  0.0 mm
15:25 79.5 °F /  26.4 °C 58.6 °F /  14.8 °C 29.9 in /  1011.7 hPa East 11.5 mph /  18.5 km/h 11.5 mph /  18.5 km/h 49 % 0 in /  0.0 mm
15:30 78.6 °F /  25.9 °C 58.5 °F /  14.7 °C 29.9 in /  1011.7 hPa ESE 8.1 mph /  13.0 km/h 8.1 mph /  13.0 km/h 50 % 0 in /  0.0 mm
15:35 79.7 °F /  26.5 °C 59.4 °F /  15.2 °C 29.9 in /  1011.7 hPa WSW 2.4 mph /  3.9 km/h 2.4 mph /  3.9 km/h 50 % 0 in /  0.0 mm
15:40 79 °F /  26.1 °C 59.4 °F /  15.2 °C 29.9 in /  1011.7 hPa ESE 7.6 mph /  12.2 km/h 7.6 mph /  12.2 km/h 51 % 0 in /  0.0 mm
15:45 78.3 °F /  25.7 °C 58.6 °F /  14.8 °C 29.9 in /  1011.7 hPa East 10.4 mph /  16.7 km/h 10.4 mph /  16.7 km/h 51 % 0 in /  0.0 mm
15:50 77.7 °F /  25.4 °C 58.6 °F /  14.8 °C 29.9 in /  1011.7 hPa East 5.8 mph /  9.3 km/h 5.8 mph /  9.3 km/h 52 % 0 in /  0.0 mm
15:55 78.3 °F /  25.7 °C 59.2 °F /  15.1 °C 29.9 in /  1011.7 hPa SW 8.1 mph /  13.0 km/h 8.1 mph /  13.0 km/h 52 % 0 in /  0.0 mm
16:00 78.6 °F /  25.9 °C 59.5 °F /  15.3 °C 29.9 in /  1011.7 hPa East 3.6 mph /  5.8 km/h 3.6 mph /  5.8 km/h 52 % 0 in /  0.0 mm
16:05 79.3 °F /  26.3 °C 60.3 °F /  15.7 °C 29.9 in /  1011.7 hPa SW 5.8 mph /  9.3 km/h 5.8 mph /  9.3 km/h 52 % 0 in /  0.0 mm
16:10 80.1 °F /  26.7 °C 60.3 °F /  15.7 °C 29.9 in /  1011.7 hPa SSE 3.1 mph /  5.0 km/h 3.3 mph /  5.3 km/h 51 % 0 in /  0.0 mm
16:15 81 °F /  27.2 °C 60.6 °F /  15.9 °C 29.9 in /  1011.7 hPa SW 5.8 mph /  9.3 km/h 5.8 mph /  9.3 km/h 50 % 0 in /  0.0 mm
16:20 82.9 °F /  28.3 °C 61.9 °F /  16.6 °C 29.9 in /  1011.7 hPa SW 4 mph /  6.4 km/h 4 mph /  6.4 km/h 49 % 0 in /  0.0 mm
16:25 81.7 °F /  27.6 °C 60.6 °F /  15.9 °C 29.9 in /  1011.7 hPa SSW 9.2 mph /  14.8 km/h 9.2 mph /  14.8 km/h 49 % 0 in /  0.0 mm
16:26 81.7 °F /  27.6 °C 60.6 °F /  15.9 °C 29.9 in /  1011.7 hPa SW 9.2 mph /  14.8 km/h 9.2 mph /  14.8 km/h 49 % 0 in /  0.0 mm
16:31 81.9 °F /  27.7 °C 60.8 °F /  16.0 °C 29.9 in /  1011.7 hPa SSE 5.8 mph /  9.3 km/h 5.8 mph /  9.3 km/h 49 % 0 in /  0.0 mm
16:36 83.1 °F /  28.4 °C 62.1 °F /  16.7 °C 29.8 in /  1010.7 hPa SSW 4.6 mph /  7.4 km/h 4.6 mph /  7.4 km/h 49 % 0 in /  0.0 mm
16:41 84 °F /  28.9 °C 62.2 °F /  16.8 °C 29.8 in /  1010.7 hPa SSE 3.5 mph /  5.6 km/h 3.5 mph /  5.6 km/h 48 % 0 in /  0.0 mm
16:46 84.6 °F /  29.2 °C 62.1 °F /  16.7 °C 29.8 in /  1010.7 hPa WSW 3.6 mph /  5.8 km/h 3.6 mph /  5.8 km/h 47 % 0 in /  0.0 mm
16:51 84.7 °F /  29.3 °C 61.7 °F /  16.5 °C 29.9 in /  1011.7 hPa West 5.8 mph /  9.3 km/h 5.8 mph /  9.3 km/h 46 % 0 in /  0.0 mm
16:56 85.6 °F /  29.8 °C 62.4 °F /  16.9 °C 29.9 in /  1011.7 hPa SE 3.5 mph /  5.6 km/h 3.5 mph /  5.6 km/h 46 % 0 in /  0.0 mm
17:01 83.3 °F /  28.5 °C 61 °F /  16.1 °C 29.9 in /  1011.7 hPa NW 9.2 mph /  14.8 km/h 9.2 mph /  14.8 km/h 47 % 0 in /  0.0 mm
17:06 83.7 °F /  28.7 °C 61.3 °F /  16.3 °C 29.9 in /  1011.7 hPa South 4.6 mph /  7.4 km/h 4.6 mph /  7.4 km/h 47 % 0 in /  0.0 mm
17:11 82.2 °F /  27.9 °C 60.1 °F /  15.6 °C 29.9 in /  1011.7 hPa NNE 5.9 mph /  9.5 km/h 5.9 mph /  9.5 km/h 47 % 0 in /  0.0 mm
17:16 82.6 °F /  28.1 °C 61 °F /  16.1 °C 29.9 in /  1011.7 hPa SW 12.7 mph /  20.4 km/h 12.7 mph /  20.4 km/h 48 % 0 in /  0.0 mm
17:21 82.8 °F /  28.2 °C 61.2 °F /  16.2 °C 29.9 in /  1011.7 hPa ESE 11.5 mph /  18.5 km/h 11.5 mph /  18.5 km/h 48 % 0 in /  0.0 mm
17:26 80.8 °F /  27.1 °C 59.7 °F /  15.4 °C 29.9 in /  1011.7 hPa East 6.9 mph /  11.1 km/h 6.9 mph /  11.1 km/h 49 % 0 in /  0.0 mm
17:31 80.2 °F /  26.8 °C 60.4 °F /  15.8 °C 29.9 in /  1011.7 hPa NNE 13.8 mph /  22.2 km/h 13.8 mph /  22.2 km/h 51 % 0 in /  0.0 mm
17:36 79.5 °F /  26.4 °C 59.7 °F /  15.4 °C 29.9 in /  1011.7 hPa ESE 9.2 mph /  14.8 km/h 9.7 mph /  15.6 km/h 51 % 0 in /  0.0 mm
17:41 79.5 °F /  26.4 °C 60.4 °F /  15.8 °C 29.9 in /  1011.7 hPa NNE 12.7 mph /  20.4 km/h 12.7 mph /  20.4 km/h 52 % 0 in /  0.0 mm
17:46 79 °F /  26.1 °C 59.9 °F /  15.5 °C 29.9 in /  1011.7 hPa ESE 6.9 mph /  11.1 km/h 7.1 mph /  11.4 km/h 52 % 0 in /  0.0 mm
17:51 78.8 °F /  26.0 °C 59.7 °F /  15.4 °C 29.9 in /  1011.7 hPa NNW 8.1 mph /  13.0 km/h 8.1 mph /  13.0 km/h 52 % 0 in /  0.0 mm
17:56 79.3 °F /  26.3 °C 60.6 °F /  15.9 °C 29.9 in /  1011.7 hPa ESE 10.4 mph /  16.7 km/h 10.4 mph /  16.7 km/h 53 % 0 in /  0.0 mm
18:01 79.2 °F /  26.2 °C 60.6 °F /  15.9 °C 29.9 in /  1011.7 hPa East 12.7 mph /  20.4 km/h 12.7 mph /  20.4 km/h 53 % 0 in /  0.0 mm
18:06 78.6 °F /  25.9 °C 60.1 °F /  15.6 °C 29.9 in /  1011.7 hPa East 9.2 mph /  14.8 km/h 9.2 mph /  14.8 km/h 53 % 0 in /  0.0 mm
18:11 78.6 °F /  25.9 °C 60.1 °F /  15.6 °C 29.9 in /  1011.7 hPa ENE 6.9 mph /  11.1 km/h 6.9 mph /  11.1 km/h 53 % 0 in /  0.0 mm
18:16 79 °F /  26.1 °C 60.4 °F /  15.8 °C 29.9 in /  1011.7 hPa ESE 9.2 mph /  14.8 km/h 9.2 mph /  14.8 km/h 53 % 0 in /  0.0 mm
18:21 78.4 °F /  25.8 °C 59.9 °F /  15.5 °C 29.9 in /  1011.7 hPa ESE 10 mph /  16.1 km/h 10 mph /  16.1 km/h 53 % 0 in /  0.0 mm
18:26 78.1 °F /  25.6 °C 59.5 °F /  15.3 °C 29.9 in /  1011.7 hPa SE 8.7 mph /  14.0 km/h 8.7 mph /  14.0 km/h 53 % 0 in /  0.0 mm
18:31 78.3 °F /  25.7 °C 59.7 °F /  15.4 °C 29.9 in /  1011.7 hPa ENE 9.2 mph /  14.8 km/h 9.2 mph /  14.8 km/h 53 % 0 in /  0.0 mm
18:36 78.3 °F /  25.7 °C 59.7 °F /  15.4 °C 29.9 in /  1011.7 hPa NNE 6.4 mph /  10.3 km/h 6.4 mph /  10.3 km/h 53 % 0 in /  0.0 mm
18:41 78.4 °F /  25.8 °C 59.4 °F /  15.2 °C 29.9 in /  1011.7 hPa ESE 5.8 mph /  9.3 km/h 5.8 mph /  9.3 km/h 52 % 0 in /  0.0 mm
18:46 78.3 °F /  25.7 °C 59.2 °F /  15.1 °C 29.9 in /  1011.7 hPa ESE 8.1 mph /  13.0 km/h 8.1 mph /  13.0 km/h 52 % 0 in /  0.0 mm
18:56 78.4 °F /  25.8 °C 58.8 °F /  14.9 °C 29.9 in /  1011.7 hPa ESE 6.9 mph /  11.1 km/h 6.9 mph /  11.1 km/h 51 % 0 in /  0.0 mm
19:01 78.1 °F /  25.6 °C 58.5 °F /  14.7 °C 29.9 in /  1011.7 hPa ENE 5.8 mph /  9.3 km/h 5.8 mph /  9.3 km/h 51 % 0 in /  0.0 mm
19:06 77.7 °F /  25.4 °C 57.6 °F /  14.2 °C 29.9 in /  1011.7 hPa East 6.9 mph /  11.1 km/h 6.9 mph /  11.1 km/h 50 % 0 in /  0.0 mm
19:11 77.9 °F /  25.5 °C 57.7 °F /  14.3 °C 29.9 in /  1011.7 hPa ENE 5.8 mph /  9.3 km/h 5.9 mph /  9.5 km/h 50 % 0 in /  0.0 mm
19:15 70.9 °F /  21.6 °C 57.7 °F /  14.3 °C 29.9 in /  1013.8 hPa Calm     63 % 0 in /  0.0 mm
19:16 78.1 °F /  25.6 °C 57.9 °F /  14.4 °C 29.9 in /  1011.7 hPa SE 4.6 mph /  7.4 km/h 4.6 mph /  7.4 km/h 50 % 0 in /  0.0 mm
19:21 77.9 °F /  25.5 °C 57.7 °F /  14.3 °C 29.8 in /  1010.7 hPa East 5.8 mph /  9.3 km/h 5.8 mph /  9.3 km/h 50 % 0 in /  0.0 mm
19:25 70.3 °F /  21.3 °C 57.6 °F /  14.2 °C 29.9 in /  1013.8 hPa NE 1 mph /  1.6 km/h 1 mph /  1.6 km/h 64 % 0 in /  0.0 mm
19:26 77.7 °F /  25.4 °C 57.6 °F /  14.2 °C 29.8 in /  1010.7 hPa ESE 7.8 mph /  12.6 km/h 7.8 mph /  12.6 km/h 50 % 0 in /  0.0 mm
19:31 77.5 °F /  25.3 °C 57.4 °F /  14.1 °C 29.8 in /  1010.7 hPa ESE 5.9 mph /  9.5 km/h 5.9 mph /  9.5 km/h 50 % 0 in /  0.0 mm
19:35 70 °F /  21.1 °C 57.7 °F /  14.3 °C 29.9 in /  1013.8 hPa Calm     65 % 0 in /  0.0 mm
19:36 77.5 °F /  25.3 °C 57.4 °F /  14.1 °C 29.9 in /  1011.7 hPa East 8.1 mph /  13.0 km/h 8.1 mph /  13.0 km/h 50 % 0 in /  0.0 mm
19:41 77.4 °F /  25.2 °C 57.7 °F /  14.3 °C 29.9 in /  1011.7 hPa ENE 9.2 mph /  14.8 km/h 9.2 mph /  14.8 km/h 51 % 0 in /  0.0 mm
19:45 70 °F /  21.1 °C 57.7 °F /  14.3 °C 29.9 in /  1013.8 hPa Calm     65 % 0 in /  0.0 mm
19:46 77.2 °F /  25.1 °C 57.7 °F /  14.3 °C 29.9 in /  1011.7 hPa ENE 5.8 mph /  9.3 km/h 5.8 mph /  9.3 km/h 51 % 0 in /  0.0 mm
19:51 77 °F /  25.0 °C 57.6 °F /  14.2 °C 29.9 in /  1011.7 hPa ESE 10.4 mph /  16.7 km/h 10.4 mph /  16.7 km/h 51 % 0 in /  0.0 mm
19:55 69.8 °F /  21.0 °C 57.9 °F /  14.4 °C 29.9 in /  1012.8 hPa Calm     66 % 0 in /  0.0 mm
19:56 77 °F /  25.0 °C 57.6 °F /  14.2 °C 29.9 in /  1011.7 hPa ESE 5.8 mph /  9.3 km/h 5.8 mph /  9.3 km/h 51 % 0 in /  0.0 mm
20:01 76.8 °F /  24.9 °C 57.9 °F /  14.4 °C 29.9 in /  1011.7 hPa East 6 mph /  9.7 km/h 6 mph /  9.7 km/h 52 % 0 in /  0.0 mm
20:05 69.6 °F /  20.9 °C 57.7 °F /  14.3 °C 29.9 in /  1012.8 hPa Calm     66 % 0 in /  0.0 mm
20:06 76.5 °F /  24.7 °C 57.6 °F /  14.2 °C 29.9 in /  1011.7 hPa ESE 9.2 mph /  14.8 km/h 9.2 mph /  14.8 km/h 52 % 0 in /  0.0 mm
20:11 76.5 °F /  24.7 °C 57.6 °F /  14.2 °C 29.9 in /  1011.7 hPa East 5.4 mph /  8.7 km/h 5.4 mph /  8.7 km/h 52 % 0 in /  0.0 mm
20:15 69.6 °F /  20.9 °C 58.3 °F /  14.6 °C 29.9 in /  1012.8 hPa Calm     67 % 0 in /  0.0 mm
20:16 76.5 °F /  24.7 °C 57.6 °F /  14.2 °C 29.9 in /  1011.7 hPa ENE 5.8 mph /  9.3 km/h 5.8 mph /  9.3 km/h 52 % 0 in /  0.0 mm
20:21 76.3 °F /  24.6 °C 57.4 °F /  14.1 °C 29.8 in /  1010.7 hPa ENE 6 mph /  9.7 km/h 6 mph /  9.7 km/h 52 % 0 in /  0.0 mm
20:25 69.6 °F /  20.9 °C 58.3 °F /  14.6 °C 29.9 in /  1012.8 hPa Calm     67 % 0 in /  0.0 mm
20:26 76.1 °F /  24.5 °C 57.2 °F /  14.0 °C 29.8 in /  1010.7 hPa ESE 5.8 mph /  9.3 km/h 5.8 mph /  9.3 km/h 52 % 0 in /  0.0 mm
20:31 75.9 °F /  24.4 °C 57 °F /  13.9 °C 29.8 in /  1010.7 hPa ESE 5.8 mph /  9.3 km/h 5.8 mph /  9.3 km/h 52 % 0 in /  0.0 mm
20:35 69.4 °F /  20.8 °C 57.9 °F /  14.4 °C 29.9 in /  1013.8 hPa Calm   2 mph /  3.2 km/h 67 % 0 in /  0.0 mm
20:36 75.9 °F /  24.4 °C 57 °F /  13.9 °C 29.9 in /  1011.7 hPa East 3.5 mph /  5.6 km/h 3.5 mph /  5.6 km/h 52 % 0 in /  0.0 mm
20:41 75.7 °F /  24.3 °C 56.8 °F /  13.8 °C 29.9 in /  1011.7 hPa ESE 4.6 mph /  7.4 km/h 4.6 mph /  7.4 km/h 52 % 0 in /  0.0 mm
20:45 69.4 °F /  20.8 °C 57.9 °F /  14.4 °C 29.9 in /  1013.8 hPa Calm   2 mph /  3.2 km/h 67 % 0 in /  0.0 mm
20:46 75.6 °F /  24.2 °C 56.7 °F /  13.7 °C 29.9 in /  1011.7 hPa SE 4.6 mph /  7.4 km/h 4.6 mph /  7.4 km/h 52 % 0 in /  0.0 mm
20:51 75.6 °F /  24.2 °C 56.7 °F /  13.7 °C 29.9 in /  1011.7 hPa East 3.5 mph /  5.6 km/h 3.5 mph /  5.6 km/h 52 % 0 in /  0.0 mm
20:55 69.3 °F /  20.7 °C 57.7 °F /  14.3 °C 29.9 in /  1013.8 hPa Calm     67 % 0 in /  0.0 mm
20:56 75.4 °F /  24.1 °C 56.5 °F /  13.6 °C 29.9 in /  1011.7 hPa ENE 4.6 mph /  7.4 km/h 4.6 mph /  7.4 km/h 52 % 0 in /  0.0 mm
21:01 75.2 °F /  24.0 °C 56.5 °F /  13.6 °C 29.9 in /  1011.7 hPa SE 3.8 mph /  6.1 km/h 3.8 mph /  6.1 km/h 52 % 0 in /  0.0 mm
21:05 68.7 °F /  20.4 °C 57.7 °F /  14.3 °C 29.9 in /  1013.8 hPa Calm     68 % 0 in /  0.0 mm
21:06 75.2 °F /  24.0 °C 56.5 °F /  13.6 °C 29.9 in /  1011.7 hPa Calm     52 % 0 in /  0.0 mm
21:11 75 °F /  23.9 °C 56.1 °F /  13.4 °C 29.9 in /  1011.7 hPa WSW 2.3 mph /  3.7 km/h 2.6 mph /  4.2 km/h 52 % 0 in /  0.0 mm
21:15 68.4 °F /  20.2 °C 57.7 °F /  14.3 °C 29.9 in /  1013.8 hPa Calm   2 mph /  3.2 km/h 69 % 0 in /  0.0 mm
21:16 75 °F /  23.9 °C 56.7 °F /  13.7 °C 29.9 in /  1011.7 hPa SW 2.4 mph /  3.9 km/h 2.4 mph /  3.9 km/h 53 % 0 in /  0.0 mm
21:21 74.8 °F /  23.8 °C 56.7 °F /  13.7 °C 29.9 in /  1011.7 hPa Calm     53 % 0 in /  0.0 mm
21:25 68 °F /  20.0 °C 57.4 °F /  14.1 °C 29.9 in /  1013.8 hPa Calm   2 mph /  3.2 km/h 69 % 0 in /  0.0 mm
21:26 74.8 °F /  23.8 °C 56.7 °F /  13.7 °C 29.9 in /  1011.7 hPa SW 2.3 mph /  3.7 km/h 2.3 mph /  3.7 km/h 53 % 0 in /  0.0 mm
21:31 74.7 °F /  23.7 °C 56.5 °F /  13.6 °C 29.9 in /  1011.7 hPa Calm     53 % 0 in /  0.0 mm
21:35 67.5 °F /  19.7 °C 57.7 °F /  14.3 °C 29.9 in /  1013.8 hPa Calm   2 mph /  3.2 km/h 71 % 0 in /  0.0 mm
21:36 74.5 °F /  23.6 °C 56.1 °F /  13.4 °C 29.9 in /  1012.8 hPa West 1.2 mph /  1.9 km/h   53 % 0 in /  0.0 mm
21:41 74.3 °F /  23.5 °C 56.1 °F /  13.4 °C 29.9 in /  1012.8 hPa East 1.6 mph /  2.6 km/h   53 % 0 in /  0.0 mm
21:45 67.1 °F /  19.5 °C 57 °F /  13.9 °C 29.9 in /  1013.8 hPa Calm     70 % 0 in /  0.0 mm
21:46 73.9 °F /  23.3 °C 55.8 °F /  13.2 °C 29.9 in /  1012.8 hPa NE 1.2 mph /  1.9 km/h   53 % 0 in /  0.0 mm
21:51 73.8 °F /  23.2 °C 55.6 °F /  13.1 °C 29.9 in /  1012.8 hPa NE 1.6 mph /  2.6 km/h 1.6 mph /  2.6 km/h 53 % 0 in /  0.0 mm
21:55 66.9 °F /  19.4 °C 57.2 °F /  14.0 °C 29.9 in /  1012.8 hPa Calm     71 % 0 in /  0.0 mm
21:56 73.8 °F /  23.2 °C 55.6 °F /  13.1 °C 29.9 in /  1012.8 hPa NNE 1.2 mph /  1.9 km/h 1.2 mph /  1.9 km/h 53 % 0 in /  0.0 mm
22:01 73.6 °F /  23.1 °C 55.4 °F /  13.0 °C 29.9 in /  1012.8 hPa NNE 2.3 mph /  3.7 km/h 2.3 mph /  3.7 km/h 53 % 0 in /  0.0 mm
22:05 66.9 °F /  19.4 °C 57.2 °F /  14.0 °C 29.9 in /  1013.8 hPa SW 1 mph /  1.6 km/h 1 mph /  1.6 km/h 71 % 0 in /  0.0 mm
22:06 73.6 °F /  23.1 °C 55.4 °F /  13.0 °C 29.9 in /  1013.8 hPa Calm     53 % 0 in /  0.0 mm
22:11 73.4 °F /  23.0 °C 54.7 °F /  12.6 °C 29.9 in /  1013.8 hPa SE 2.3 mph /  3.7 km/h 2.3 mph /  3.7 km/h 52 % 0 in /  0.0 mm
22:15 66.7 °F /  19.3 °C 57 °F /  13.9 °C 29.9 in /  1013.8 hPa SW 1 mph /  1.6 km/h 2 mph /  3.2 km/h 71 % 0 in /  0.0 mm
22:16 73.2 °F /  22.9 °C 55 °F /  12.8 °C 29.9 in /  1013.8 hPa SW 1.4 mph /  2.3 km/h   53 % 0 in /  0.0 mm
22:21 73.2 °F /  22.9 °C 55 °F /  12.8 °C 29.9 in /  1013.8 hPa WSW 1.2 mph /  1.9 km/h   53 % 0 in /  0.0 mm
22:25 66.6 °F /  19.2 °C 57.4 °F /  14.1 °C 30 in /  1014.8 hPa Calm   1 mph /  1.6 km/h 72 % 0 in /  0.0 mm
22:26 73 °F /  22.8 °C 54.9 °F /  12.7 °C 29.9 in /  1013.8 hPa Calm     53 % 0 in /  0.0 mm
22:31 72.9 °F /  22.7 °C 54.7 °F /  12.6 °C 29.9 in /  1013.8 hPa NW 1.2 mph /  1.9 km/h 1.2 mph /  1.9 km/h 53 % 0 in /  0.0 mm
22:35 66.4 °F /  19.1 °C 57 °F /  13.9 °C 29.9 in /  1013.8 hPa Calm     72 % 0 in /  0.0 mm
22:36 72.9 °F /  22.7 °C 55.2 °F /  12.9 °C 29.9 in /  1013.8 hPa North 1.2 mph /  1.9 km/h 1.2 mph /  1.9 km/h 54 % 0 in /  0.0 mm
22:41 72.9 °F /  22.7 °C 55.8 °F /  13.2 °C 29.9 in /  1013.8 hPa Calm     55 % 0 in /  0.0 mm
22:45 66.4 °F /  19.1 °C 57.6 °F /  14.2 °C 29.9 in /  1013.8 hPa SW 1 mph /  1.6 km/h 1 mph /  1.6 km/h 73 % 0 in /  0.0 mm
22:46 72.7 °F /  22.6 °C 56.1 °F /  13.4 °C 29.9 in /  1013.8 hPa WSW 1.4 mph /  2.3 km/h 1.4 mph /  2.3 km/h 56 % 0 in /  0.0 mm
22:51 72.7 °F /  22.6 °C 56.1 °F /  13.4 °C 29.9 in /  1013.8 hPa WSW 2.3 mph /  3.7 km/h 2.3 mph /  3.7 km/h 56 % 0 in /  0.0 mm
22:55 66.4 °F /  19.1 °C 57.6 °F /  14.2 °C 29.9 in /  1013.8 hPa Calm     73 % 0 in /  0.0 mm
22:56 72.5 °F /  22.5 °C 56.5 °F /  13.6 °C 29.9 in /  1013.8 hPa WSW 2 mph /  3.2 km/h 2 mph /  3.2 km/h 57 % 0 in /  0.0 mm
23:01 72.5 °F /  22.5 °C 56.5 °F /  13.6 °C 29.9 in /  1013.8 hPa WSW 2.3 mph /  3.7 km/h 2.3 mph /  3.7 km/h 57 % 0 in /  0.0 mm
23:05 66.4 °F /  19.1 °C 57.6 °F /  14.2 °C 29.9 in /  1013.8 hPa Calm     73 % 0 in /  0.0 mm
23:06 72.3 °F /  22.4 °C 56.7 °F /  13.7 °C 29.9 in /  1013.8 hPa WNW 1.2 mph /  1.9 km/h 1.2 mph /  1.9 km/h 58 % 0 in /  0.0 mm
23:11 72.1 °F /  22.3 °C 57 °F /  13.9 °C 29.9 in /  1013.8 hPa West 1.2 mph /  1.9 km/h   59 % 0 in /  0.0 mm
23:15 66.2 °F /  19.0 °C 57.4 °F /  14.1 °C 29.9 in /  1013.8 hPa Calm     73 % 0 in /  0.0 mm
23:16 72 °F /  22.2 °C 56.8 °F /  13.8 °C 29.9 in /  1013.8 hPa SW 1.2 mph /  1.9 km/h 1.2 mph /  1.9 km/h 59 % 0 in /  0.0 mm
23:21 71.8 °F /  22.1 °C 57 °F /  13.9 °C 29.9 in /  1013.8 hPa Calm     60 % 0 in /  0.0 mm
23:25 66.2 °F /  19.0 °C 57.7 °F /  14.3 °C 29.9 in /  1013.8 hPa SW 1 mph /  1.6 km/h 2 mph /  3.2 km/h 74 % 0 in /  0.0 mm
23:26 71.8 °F /  22.1 °C 57 °F /  13.9 °C 29.9 in /  1013.8 hPa WSW 2.3 mph /  3.7 km/h 2.3 mph /  3.7 km/h 60 % 0 in /  0.0 mm
23:31 71.8 °F /  22.1 °C 57 °F /  13.9 °C 29.9 in /  1013.8 hPa West 3.1 mph /  5.0 km/h 3.1 mph /  5.0 km/h 60 % 0 in /  0.0 mm
23:35 66 °F /  18.9 °C 57.9 °F /  14.4 °C 29.9 in /  1013.8 hPa Calm   2 mph /  3.2 km/h 75 % 0 in /  0.0 mm
23:36 71.8 °F /  22.1 °C 57.6 °F /  14.2 °C 29.9 in /  1013.8 hPa WSW 1.4 mph /  2.3 km/h 1.4 mph /  2.3 km/h 61 % 0 in /  0.0 mm
23:41 71.6 °F /  22.0 °C 57.4 °F /  14.1 °C 29.9 in /  1013.8 hPa West 1.2 mph /  1.9 km/h   61 % 0 in /  0.0 mm
23:45 66 °F /  18.9 °C 57.9 °F /  14.4 °C 29.9 in /  1013.8 hPa Calm   1 mph /  1.6 km/h 75 % 0 in /  0.0 mm
23:46 71.4 °F /  21.9 °C 57.7 °F /  14.3 °C 29.9 in /  1013.8 hPa Calm     62 % 0 in /  0.0 mm
23:51 71.4 °F /  21.9 °C 57.7 °F /  14.3 °C 29.9 in /  1013.8 hPa Calm     62 % 0 in /  0.0 mm
23:55 66 °F /  18.9 °C 58.3 °F /  14.6 °C 29.9 in /  1013.8 hPa Calm   1 mph /  1.6 km/h 76 % 0 in /  0.0 mm
23:56 71.2 °F /  21.8 °C 57.9 °F /  14.4 °C 29.9 in /  1013.8 hPa Calm     63 % 0 in /  0.0 mm
Meteo Sesrovires
Elogis d' Weather Underground - 3.75 mb

Guio original per  Jim McMurry - jmcmurry@mwt.net Adaptat per a la plantilla per  Wim van der Kuil - Leuven-Template.eu

Trobareu la nostra informacio del temps tambe a:

Weather Underground

AWEKAS